962  
SHUS65 KGJT 222021  
FWOGJT  
 
DAILY FIRE WEATHER OBSERVATION  
NATIONAL WEATHER SERVICE GRAND JUNCTION CO  
221 PM MDT WED MAR 22 2017  
 
STATE OF THE WEATHER (W) 2  
DRY BULB TEMPERATURE 71 DEGREES FAHRENHEIT  
RELATIVE HUMIDITY (RH) 18 PERCENT  
LIGHTNING ACTIVITY LEVEL  
(LAL - MIDNIGHT TO 2 PM) 1  
WIND DIRECTION C DEGREES (C IF CALM)  
WIND SPEED 0 MPH  
MAX TEMP (2 PM - 2 PM) 76 DEGREES FAHRENHEIT  
MIN TEMP (2 PM - 2 PM) 55 DEGREES FAHRENHEIT  
MAX RH (2 PM - 2 PM) 37 PERCENT  
MIN RH (2 PM - 2 PM) 14 PERCENT  
PCPN DURATION 0.0 HOURS  
PCPN AMT (2 PM - 2 PM) 0.0 INCHES  
LAL (2 PM - 2 PM) 1  
 

 
 
METAR KGJT 221953Z VRB05KT 10SM FEW110 21/M04 A2991 RMK AO2  
SLP074 T02111044  
 
CLICK HERE TO GO TO PREVIOUS BULLETINS.

The Nexlab CO Page
The Nexlab UT Page Main Text Page